Time;durP1;ratioP1;P1;durP2;ratioP2;P2;SDS_P1;SDS_P2;PMS_P1;PMS_P2;Temp;Humidity;BMP_temperature;BMP_pressure;BME280_temperature;BME280_humidity;BME280_pressure;Samples;Min_cycle;Max_cycle;Signal;HPM_P1;HPM_P2
2022/10/15 00:00:20;;;;;;;;;;;;;;;11.46;nan;100696.88;5029376;28;20316;-66
2022/10/15 00:02:45;;;;;;;;;;;;;;;11.43;94.24;100709.84;5031907;28;20328;-66
2022/10/15 00:05:10;;;;;;;;;;;;;;;11.41;94.37;100706.31;5029351;28;19924;-66
2022/10/15 00:07:35;;;;;;;;;;;;;;;11.37;94.27;100705.41;5028363;28;19927;-71
2022/10/15 00:10:01;;;;;;;;;;;;;;;11.34;94.28;100709.69;5028593;28;20435;-71
2022/10/15 00:12:26;;;;;;;;;;;;;;;11.30;94.20;100713.97;5029997;28;19910;-71
2022/10/15 00:14:51;;;;;;;;;;;;;;;11.26;94.16;100713.03;5029523;28;19924;-71
2022/10/15 00:17:16;;;;;;;;;;;;;;;11.21;94.33;100711.19;5029841;28;20330;-70
2022/10/15 00:19:41;;;;;;;;;;;;;;;11.17;94.37;100706.78;5030454;28;19917;-71
2022/10/15 00:22:06;;;;;;;;;;;;;;;11.14;94.19;100710.19;5028698;28;19913;-71
2022/10/15 00:24:32;;;;;;;;;;;;;;;11.12;94.38;100715.38;5030131;28;20440;-71
2022/10/15 00:26:57;;;;;;;;;;;;;;;11.11;94.42;100712.75;5029490;28;19913;-71
2022/10/15 00:29:22;;;;;;;;;;;;;;;11.11;94.37;100713.63;5028731;28;19924;-71
2022/10/15 00:31:47;;;;;;;;;;;;;;;11.10;94.40;100717.06;5028491;28;19917;-71
2022/10/15 00:34:12;;;;;;;;;;;;;;;11.11;94.56;100712.75;5029064;28;19921;-71
2022/10/15 00:36:38;;;;;;;;;;;;;;;11.10;94.37;100718.81;5029444;28;19913;-66
2022/10/15 00:39:04;;;;;;;;;;;;;;;11.10;94.54;100721.41;5029105;28;19925;-66
2022/10/15 00:41:31;;;;;;;;;;;;;;;11.10;94.60;100711.84;5028557;28;19928;-66
2022/10/15 00:43:57;;;;;;;;;;;;;;;11.12;94.78;100715.38;5028752;28;20682;-66
2022/10/15 00:46:25;;;;;;;;;;;;;;;11.14;94.72;100712.81;5031877;28;20331;-66
2022/10/15 00:48:53;;;;;;;;;;;;;;;11.20;94.81;100717.25;5027234;28;20399;-67
2022/10/15 00:51:19;;;;;;;;;;;;;;;11.22;95.26;100721.63;5026687;28;19913;-66
2022/10/15 00:53:45;;;;;;;;;;;;;;;11.23;95.07;100718.19;5029108;28;19917;-66
2022/10/15 00:56:12;;;;;;;;;;;;;;;11.27;95.00;100720.00;5012176;28;20040;-66
2022/10/15 00:58:37;;;;;;;;;;;;;;;11.30;95.23;100720.06;5034550;28;19924;-66
2022/10/15 01:01:02;;;;;;;;;;;;;;;11.35;95.18;100714.06;5032751;28;19925;-66
2022/10/15 01:03:28;;;;;;;;;;;;;;;11.40;95.34;100720.25;5032979;28;19960;-66
2022/10/15 01:05:53;;;;;;;;;;;;;;;11.44;95.71;100716.81;5027889;28;20331;-66
2022/10/15 01:08:18;;;;;;;;;;;;;;;11.48;96.13;100716.03;5032853;28;19925;-71
2022/10/15 01:10:50;;;;;;;;;;;;;;;11.53;96.14;100706.56;5032663;28;20022;-70
2022/10/15 01:13:22;;;;;;;;;;;;;;;11.56;96.24;100714.44;5025576;28;19917;-70
2022/10/15 01:15:54;;;;;;;;;;;;;;;11.59;95.88;100704.03;5031599;28;19925;-71
2022/10/15 01:18:21;;;;;;;;;;;;;;;11.63;96.59;100703.25;5031516;28;19924;-70
2022/10/15 01:21:01;;;;;;;;;;;;;;;11.67;96.82;100698.94;5031831;28;19921;-71
2022/10/15 01:23:37;;;;;;;;;;;;;;;11.71;96.75;100697.28;5028980;28;19957;-71
2022/10/15 01:26:20;;;;;;;;;;;;;;;11.74;97.24;100692.09;5032057;28;20384;-71
2022/10/15 01:28:48;;;;;;;;;;;;;;;11.77;97.03;100686.94;5024782;28;19953;-70
2022/10/15 01:31:16;;;;;;;;;;;;;;;11.80;96.97;100690.50;5031607;28;20454;-70
2022/10/15 01:33:50;;;;;;;;;;;;;;;11.81;97.34;100673.94;5032396;28;19921;-70
2022/10/15 01:36:18;;;;;;;;;;;;;;;11.84;97.39;100671.38;5032466;28;19921;-71
2022/10/15 01:38:43;;;;;;;;;;;;;;;11.89;97.25;100678.41;5031563;28;19917;-71
2022/10/15 01:41:08;;;;;;;;;;;;;;;11.92;97.33;100678.44;5031390;28;19921;-70
2022/10/15 01:43:38;;;;;;;;;;;;;;;11.94;97.57;100672.44;5033827;28;19952;-70
2022/10/15 01:46:14;;;;;;;;;;;;;;;11.97;97.77;100679.44;5035472;28;19953;-71
2022/10/15 01:48:40;;;;;;;;;;;;;;;11.99;97.54;100685.56;5027712;28;19917;-71
2022/10/15 01:51:06;;;;;;;;;;;;;;;12.02;97.60;100687.34;5030714;28;19924;-71
2022/10/15 01:53:33;;;;;;;;;;;;;;;12.04;97.47;100677.81;5031515;28;19917;-71
2022/10/15 01:56:04;;;;;;;;;;;;;;;12.06;97.41;100676.09;5030378;28;19945;-71
2022/10/15 01:58:30;;;;;;;;;;;;;;;12.07;97.61;100673.50;5032483;28;19921;-70
2022/10/15 02:00:56;;;;;;;;;;;;;;;12.10;97.88;100672.69;5032883;28;20372;-70
2022/10/15 02:03:21;;;;;;;;;;;;;;;12.12;97.77;100666.63;5031713;28;19913;-70
2022/10/15 02:05:59;;;;;;;;;;;;;;;12.14;97.74;100664.03;5033003;28;20317;-70
2022/10/15 02:08:29;;;;;;;;;;;;;;;12.15;97.80;100669.28;5031273;28;20040;-70
2022/10/15 02:10:57;;;;;;;;;;;;;;;12.18;97.83;100665.84;5032580;28;19936;-70
2022/10/15 02:13:41;;;;;;;;;;;;;;;12.19;97.69;100662.34;5030674;28;19996;-70
2022/10/15 02:16:15;;;;;;;;;;;;;;;12.20;97.91;100660.63;5030917;28;19944;-66
2022/10/15 02:18:45;;;;;;;;;;;;;;;12.21;97.90;100665.88;5032181;28;19964;-66
2022/10/15 02:21:13;;;;;;;;;;;;;;;12.22;97.84;100661.53;5031187;28;19964;-66
2022/10/15 02:23:44;;;;;;;;;;;;;;;12.23;98.00;100653.72;5021269;28;19917;-66
2022/10/15 02:26:11;;;;;;;;;;;;;;;12.24;98.10;100651.97;5031466;28;20377;-66
2022/10/15 02:28:37;;;;;;;;;;;;;;;12.24;98.04;100647.63;5031603;28;19924;-66
2022/10/15 02:31:04;;;;;;;;;;;;;;;12.26;98.05;100645.03;5031566;28;20411;-66
2022/10/15 02:33:31;;;;;;;;;;;;;;;12.26;98.14;100651.13;5030438;28;19913;-66
2022/10/15 02:35:57;;;;;;;;;;;;;;;12.27;98.00;100646.81;5028706;28;19956;-66
2022/10/15 02:38:23;;;;;;;;;;;;;;;12.28;98.05;100640.69;5026343;28;20372;-66
2022/10/15 02:40:49;;;;;;;;;;;;;;;12.29;98.14;100638.09;5029776;28;20388;-66
2022/10/15 02:43:15;;;;;;;;;;;;;;;12.29;98.21;100630.25;5031025;28;19920;-66
2022/10/15 02:45:41;;;;;;;;;;;;;;;12.29;98.14;100625.03;5029410;28;20364;-66
2022/10/15 02:48:06;;;;;;;;;;;;;;;12.31;98.34;100625.97;5029450;28;19917;-71
2022/10/15 02:50:32;;;;;;;;;;;;;;;12.32;98.36;100625.06;5030273;28;19928;-70
2022/10/15 02:52:57;;;;;;;;;;;;;;;12.33;98.16;100620.75;5031098;28;19917;-70
2022/10/15 02:55:22;;;;;;;;;;;;;;;12.33;98.23;100612.91;5030113;28;19917;-70
2022/10/15 02:57:47;;;;;;;;;;;;;;;12.34;98.20;100614.69;5031144;28;19917;-70
2022/10/15 03:00:13;;;;;;;;;;;;;;;12.34;98.26;100607.69;5030093;28;20664;-71
2022/10/15 03:02:38;;;;;;;;;;;;;;;12.34;98.52;100604.22;5030202;28;19983;-70
2022/10/15 03:05:03;;;;;;;;;;;;;;;12.33;98.45;100603.31;5029049;28;19925;-71
2022/10/15 03:07:28;;;;;;;;;;;;;;;12.34;98.47;100599.00;5030800;28;19928;-71
2022/10/15 03:09:54;;;;;;;;;;;;;;;12.35;98.52;100603.34;5028273;28;19975;-70
2022/10/15 03:12:22;;;;;;;;;;;;;;;12.34;98.54;100597.25;5029978;28;20048;-70
2022/10/15 03:14:47;;;;;;;;;;;;;;;12.34;98.54;100599.88;5028541;28;19925;-70
2022/10/15 03:17:12;;;;;;;;;;;;;;;12.35;98.60;100606.84;5030022;28;19979;-66
2022/10/15 03:19:37;;;;;;;;;;;;;;;12.35;98.61;100606.84;5029737;28;19913;-66
2022/10/15 03:22:02;;;;;;;;;;;;;;;12.37;98.58;100603.34;5031251;28;19986;-66
2022/10/15 03:24:28;;;;;;;;;;;;;;;12.34;98.61;100605.09;5030588;28;19996;-66
2022/10/15 03:26:53;;;;;;;;;;;;;;;12.35;98.64;100606.84;5029328;28;19952;-66
2022/10/15 03:29:18;;;;;;;;;;;;;;;12.37;98.65;100608.59;5030369;28;19920;-66
2022/10/15 03:31:44;;;;;;;;;;;;;;;12.36;98.90;100599.88;5030128;28;20019;-66
2022/10/15 03:34:09;;;;;;;;;;;;;;;12.35;99.03;100601.63;5030402;28;19913;-66
2022/10/15 03:36:34;;;;;;;;;;;;;;;12.37;98.95;100606.88;5030070;28;19917;-66
2022/10/15 03:38:59;;;;;;;;;;;;;;;12.38;98.98;100610.34;5029471;28;19920;-66
2022/10/15 03:41:24;;;;;;;;;;;;;;;12.38;99.07;100611.22;5030005;28;19970;-66
2022/10/15 03:43:50;;;;;;;;;;;;;;;12.38;99.07;100606.00;5032917;28;19917;-66
2022/10/15 03:46:15;;;;;;;;;;;;;;;12.39;99.19;100601.66;5031615;28;19917;-66
2022/10/15 03:48:40;;;;;;;;;;;;;;;12.40;99.19;100592.94;5028815;28;19914;-66
2022/10/15 03:51:05;;;;;;;;;;;;;;;12.40;99.13;100583.38;5029843;28;19917;-66
2022/10/15 03:53:31;;;;;;;;;;;;;;;12.41;99.19;100579.94;5029343;28;19952;-66
2022/10/15 03:56:01;;;;;;;;;;;;;;;12.43;99.14;100577.31;5027113;28;20332;-66
2022/10/15 03:58:26;;;;;;;;;;;;;;;12.43;99.54;100582.56;5028990;28;19917;-66
2022/10/15 04:00:51;;;;;;;;;;;;;;;12.42;99.57;100586.00;5030074;28;19928;-66
2022/10/15 04:03:16;;;;;;;;;;;;;;;12.43;99.33;100587.78;5030373;28;19964;-66
2022/10/15 04:05:48;;;;;;;;;;;;;;;12.43;99.53;100588.66;5029350;28;19909;-66
2022/10/15 04:08:13;;;;;;;;;;;;;;;12.43;99.69;100582.56;5027635;28;19921;-66
2022/10/15 04:10:38;;;;;;;;;;;;;;;12.42;99.48;100586.00;5029093;28;19917;-66
2022/10/15 04:13:03;;;;;;;;;;;;;;;12.42;99.61;100591.25;5029925;28;19921;-66
2022/10/15 04:15:28;;;;;;;;;;;;;;;12.41;99.55;100594.69;5029912;28;19913;-66
2022/10/15 04:17:54;;;;;;;;;;;;;;;12.41;99.76;100599.94;5028921;28;20295;-66
2022/10/15 04:20:19;;;;;;;;;;;;;;;12.41;99.65;100595.59;5028729;28;20376;-66
2022/10/15 04:22:44;;;;;;;;;;;;;;;12.43;100.00;100593.00;5029794;28;19917;-66
2022/10/15 04:25:10;;;;;;;;;;;;;;;12.42;99.84;100591.25;5029413;28;19917;-66
2022/10/15 04:27:35;;;;;;;;;;;;;;;12.44;100.00;100607.81;5028701;28;19976;-66
2022/10/15 04:30:00;;;;;;;;;;;;;;;12.45;99.79;100612.19;5029859;28;20303;-66
2022/10/15 04:32:25;;;;;;;;;;;;;;;12.47;100.00;100602.59;5032890;28;20390;-66
2022/10/15 04:34:50;;;;;;;;;;;;;;;12.49;99.94;100598.28;5033136;28;20395;-66
2022/10/15 04:37:16;;;;;;;;;;;;;;;12.50;100.00;100600.06;5033311;28;19917;-66
2022/10/15 04:39:41;;;;;;;;;;;;;;;12.51;100.00;100589.63;5032752;28;19918;-66
2022/10/15 04:42:06;;;;;;;;;;;;;;;12.52;100.00;100587.88;5015520;28;19944;-66
2022/10/15 04:44:31;;;;;;;;;;;;;;;12.55;100.00;100587.91;5035313;28;20003;-66
2022/10/15 04:46:57;;;;;;;;;;;;;;;12.57;100.00;100586.22;5014765;28;21857;-66
2022/10/15 04:49:23;;;;;;;;;;;;;;;12.58;99.98;100587.94;5034103;28;19937;-66
2022/10/15 04:51:48;;;;;;;;;;;;;;;12.58;100.00;100593.16;5032498;28;19925;-66
2022/10/15 04:54:13;;;;;;;;;;;;;;;12.60;100.00;100588.84;5032884;28;20059;-66
2022/10/15 04:56:38;;;;;;;;;;;;;;;12.60;100.00;100583.63;5036962;28;19913;-66
2022/10/15 04:59:05;;;;;;;;;;;;;;;12.62;100.00;100574.03;5033982;28;19921;-66
2022/10/15 05:01:31;;;;;;;;;;;;;;;12.64;100.00;100579.28;5029252;28;19917;-66
2022/10/15 05:03:56;;;;;;;;;;;;;;;12.64;100.00;100585.41;5031106;28;19948;-66
2022/10/15 05:06:21;;;;;;;;;;;;;;;12.66;100.00;100588.03;5030779;28;20443;-66
2022/10/15 05:08:47;;;;;;;;;;;;;;;12.65;100.00;100578.44;5033990;28;19931;-66
2022/10/15 05:11:22;;;;;;;;;;;;;;;12.66;100.00;100588.91;5040796;28;19961;-66
2022/10/15 05:13:47;;;;;;;;;;;;;;;12.67;100.00;100582.81;5038150;28;20369;-66
2022/10/15 05:16:14;;;;;;;;;;;;;;;12.67;100.00;100593.28;5033087;28;19924;-66
2022/10/15 05:18:40;;;;;;;;;;;;;;;12.68;100.00;100592.41;5030687;28;19987;-65
2022/10/15 05:21:06;;;;;;;;;;;;;;;12.69;100.00;100595.91;5035685;28;19928;-66
2022/10/15 05:23:31;;;;;;;;;;;;;;;12.69;100.00;100598.53;5032965;28;19982;-66
2022/10/15 05:26:00;;;;;;;;;;;;;;;12.69;100.00;100599.41;5034882;28;19999;-66
2022/10/15 05:28:25;;;;;;;;;;;;;;;12.71;100.00;100591.56;5034588;28;19955;-70
2022/10/15 05:30:50;;;;;;;;;;;;;;;12.69;100.00;100594.16;5032616;28;20602;-71
2022/10/15 05:33:15;;;;;;;;;;;;;;;12.70;100.00;100595.03;5033247;28;19963;-70
2022/10/15 05:35:40;;;;;;;;;;;;;;;12.68;100.00;100594.16;5032442;28;19999;-70
2022/10/15 05:38:06;;;;;;;;;;;;;;;12.67;100.00;100590.66;5033247;28;19913;-70
2022/10/15 05:40:31;;;;;;;;;;;;;;;12.68;100.00;100600.25;5031256;28;20278;-71
2022/10/15 05:42:56;;;;;;;;;;;;;;;12.68;99.97;100596.75;5032099;28;19917;-70
2022/10/15 05:45:22;;;;;;;;;;;;;;;12.70;100.00;100595.03;5033280;28;19917;-70
2022/10/15 05:47:47;;;;;;;;;;;;;;;12.70;100.00;100595.03;5032643;28;19928;-70
2022/10/15 05:50:13;;;;;;;;;;;;;;;12.69;100.00;100586.31;5030769;28;19956;-70
2022/10/15 05:52:38;;;;;;;;;;;;;;;12.69;100.00;100586.31;5032067;28;20295;-70
2022/10/15 05:55:03;;;;;;;;;;;;;;;12.69;100.00;100581.09;5032382;28;20003;-70
2022/10/15 05:57:28;;;;;;;;;;;;;;;12.70;100.00;100588.09;5031804;28;19925;-70
2022/10/15 05:59:53;;;;;;;;;;;;;;;12.70;100.00;100588.09;5023218;28;19921;-70
2022/10/15 06:02:19;;;;;;;;;;;;;;;12.71;100.00;100591.56;5025012;28;20351;-70
2022/10/15 06:04:45;;;;;;;;;;;;;;;12.71;100.00;100591.56;5025888;28;19917;-70
2022/10/15 06:07:11;;;;;;;;;;;;;;;12.72;99.99;100588.09;5013771;28;19929;-70
2022/10/15 06:09:36;;;;;;;;;;;;;;;12.72;99.98;100593.31;5028486;28;20008;-71
2022/10/15 06:12:01;;;;;;;;;;;;;;;12.74;99.99;100593.34;5031053;28;20373;-70
2022/10/15 06:14:26;;;;;;;;;;;;;;;12.74;99.88;100594.22;5028135;28;20035;-71
2022/10/15 06:16:53;;;;;;;;;;;;;;;12.75;100.00;100588.13;5031962;28;19917;-71
2022/10/15 06:19:18;;;;;;;;;;;;;;;12.75;99.95;100589.88;5031889;28;19917;-71
2022/10/15 06:21:44;;;;;;;;;;;;;;;12.75;100.00;100589.88;5031380;28;19936;-70
2022/10/15 06:24:09;;;;;;;;;;;;;;;12.74;99.93;100586.38;5030775;28;19925;-70
2022/10/15 06:26:34;;;;;;;;;;;;;;;12.75;100.00;100592.50;5031168;28;19921;-67
2022/10/15 06:28:59;;;;;;;;;;;;;;;12.75;100.00;100587.25;5034403;28;19925;-67
2022/10/15 06:31:24;;;;;;;;;;;;;;;12.76;100.00;100589.00;5030299;28;20714;-67
2022/10/15 06:33:49;;;;;;;;;;;;;;;12.75;100.00;100584.66;5031662;28;20344;-66
2022/10/15 06:36:15;;;;;;;;;;;;;;;12.74;100.00;100586.38;5031253;28;19917;-67
2022/10/15 06:38:42;;;;;;;;;;;;;;;12.75;100.00;100590.75;5031081;28;19921;-67
2022/10/15 06:41:08;;;;;;;;;;;;;;;12.76;100.00;100594.22;5029079;28;19974;-67
2022/10/15 06:43:34;;;;;;;;;;;;;;;12.74;100.00;100596.81;5029131;28;19928;-66
2022/10/15 06:45:59;;;;;;;;;;;;;;;12.74;100.00;100585.50;5027464;28;19944;-67
2022/10/15 06:48:24;;;;;;;;;;;;;;;12.73;100.00;100582.03;5030947;28;19964;-66
2022/10/15 06:50:50;;;;;;;;;;;;;;;12.74;100.00;100585.50;5030268;28;19979;-67
2022/10/15 06:53:15;;;;;;;;;;;;;;;12.74;100.00;100583.75;5028886;28;20433;-67
2022/10/15 06:55:40;;;;;;;;;;;;;;;12.74;100.00;100578.53;5028481;28;19929;-67
2022/10/15 06:58:06;;;;;;;;;;;;;;;12.73;99.97;100581.13;5030757;28;19917;-71
2022/10/15 07:00:31;;;;;;;;;;;;;;;12.74;100.00;100588.13;5032105;28;20059;-71
2022/10/15 07:03:01;;;;;;;;;;;;;;;12.72;100.00;100584.63;5031167;28;19917;-70
2022/10/15 07:05:26;;;;;;;;;;;;;;;12.72;99.96;100585.47;5026837;28;19923;-70
2022/10/15 07:07:52;;;;;;;;;;;;;;;12.73;100.00;100578.50;5033260;28;19925;-70
2022/10/15 07:10:17;;;;;;;;;;;;;;;12.72;99.99;100580.25;5036054;28;19999;-70
2022/10/15 07:12:42;;;;;;;;;;;;;;;12.73;100.00;100591.56;5026727;28;19996;-71
2022/10/15 07:15:08;;;;;;;;;;;;;;;12.72;100.00;100593.31;5030853;28;19918;-71
2022/10/15 07:17:34;;;;;;;;;;;;;;;12.72;99.98;100595.94;5026456;28;19920;-70
2022/10/15 07:19:59;;;;;;;;;;;;;;;12.72;100.00;100605.53;5035271;28;19928;-70
2022/10/15 07:22:24;;;;;;;;;;;;;;;12.73;100.00;100602.03;5034715;28;20520;-70
2022/10/15 07:24:49;;;;;;;;;;;;;;;12.72;100.00;100595.94;5030640;28;20311;-70
2022/10/15 07:27:15;;;;;;;;;;;;;;;12.72;100.00;100590.72;5031129;28;19910;-70
2022/10/15 07:29:40;;;;;;;;;;;;;;;12.73;100.00;100575.91;5026708;28;19971;-71
2022/10/15 07:32:05;;;;;;;;;;;;;;;12.76;100.00;100573.31;5028472;28;20157;-70
2022/10/15 07:34:30;;;;;;;;;;;;;;;12.80;100.00;100567.25;5016835;28;19962;-71
2022/10/15 07:36:55;;;;;;;;;;;;;;;12.84;100.00;100561.19;5032150;28;19917;-71
2022/10/15 07:39:21;;;;;;;;;;;;;;;12.87;100.00;100563.84;5029817;28;19920;-71
2022/10/15 07:41:46;;;;;;;;;;;;;;;12.89;100.00;100562.13;5032533;28;20455;-72
2022/10/15 07:44:11;;;;;;;;;;;;;;;12.90;100.00;100561.25;5030053;28;19921;-71
2022/10/15 07:46:36;;;;;;;;;;;;;;;12.89;100.00;100556.91;5030085;28;19921;-70
2022/10/15 07:49:02;;;;;;;;;;;;;;;12.90;100.00;100569.09;5025036;28;19967;-70
2022/10/15 07:51:27;;;;;;;;;;;;;;;12.91;100.00;100565.63;5031712;28;19999;-70
2022/10/15 07:53:52;;;;;;;;;;;;;;;12.93;100.00;100560.41;5036347;28;19925;-70
2022/10/15 07:56:18;;;;;;;;;;;;;;;12.96;100.00;100549.97;5036223;28;19925;-71
2022/10/15 07:58:50;;;;;;;;;;;;;;;13.00;100.00;100543.91;5031558;28;20730;-70
2022/10/15 08:01:15;;;;;;;;;;;;;;;13.05;100.00;100553.56;5028063;28;19928;-70
2022/10/15 08:03:40;;;;;;;;;;;;;;;13.12;100.00;100543.13;5034091;28;19917;-71
2022/10/15 08:06:06;;;;;;;;;;;;;;;13.16;100.00;100553.63;5035597;28;19936;-66
2022/10/15 08:08:32;;;;;;;;;;;;;;;13.19;100.00;100544.94;5036218;28;20372;-66
2022/10/15 08:10:57;;;;;;;;;;;;;;;13.25;100.00;100547.59;5026310;28;19972;-66
2022/10/15 08:13:23;;;;;;;;;;;;;;;13.30;100.00;100547.66;5011819;28;20012;-66
2022/10/15 08:15:48;;;;;;;;;;;;;;;13.33;100.00;100531.97;5028495;28;19921;-64
2022/10/15 08:18:13;;;;;;;;;;;;;;;13.36;99.93;100535.50;5025708;28;20010;-64
2022/10/15 08:20:39;;;;;;;;;;;;;;;13.41;100.00;100532.91;5030345;28;19925;-65
2022/10/15 08:23:05;;;;;;;;;;;;;;;13.45;99.72;100531.19;5028448;28;19925;-65
2022/10/15 08:25:31;;;;;;;;;;;;;;;13.49;99.78;100538.22;5029158;28;20392;-64
2022/10/15 08:27:57;;;;;;;;;;;;;;;13.55;99.81;100538.25;5029571;28;19920;-64
2022/10/15 08:30:22;;;;;;;;;;;;;;;13.59;99.66;100534.78;5027939;28;19916;-65
2022/10/15 08:32:47;;;;;;;;;;;;;;;13.61;99.55;100535.66;5023079;28;20570;-65
2022/10/15 08:35:12;;;;;;;;;;;;;;;13.65;99.72;100539.19;5032899;28;19917;-65
2022/10/15 08:37:37;;;;;;;;;;;;;;;13.70;99.33;100538.34;5026060;28;19967;-65
2022/10/15 08:40:03;;;;;;;;;;;;;;;13.72;99.39;100533.97;5026248;28;19925;-65
2022/10/15 08:42:36;;;;;;;;;;;;;;;13.75;99.32;100527.91;5023727;28;19979;-65
2022/10/15 08:45:02;;;;;;;;;;;;;;;13.78;99.23;100519.19;5027488;28;20380;-64
2022/10/15 08:47:31;;;;;;;;;;;;;;;13.79;99.12;100510.44;5029106;28;19963;-65
2022/10/15 08:50:01;;;;;;;;;;;;;;;13.83;99.25;100517.44;5028585;28;19921;-65
2022/10/15 08:52:35;;;;;;;;;;;;;;;13.85;98.85;100516.59;5026795;28;19917;-65
2022/10/15 08:55:01;;;;;;;;;;;;;;;13.89;98.82;100510.50;5033393;28;19924;-65
2022/10/15 08:57:38;;;;;;;;;;;;;;;13.93;99.03;100514.00;5031848;28;19913;-64
2022/10/15 09:00:10;;;;;;;;;;;;;;;13.95;98.89;100507.03;5028936;28;19929;-64
2022/10/15 09:02:41;;;;;;;;;;;;;;;13.96;98.74;100498.34;5010643;28;20308;-65
2022/10/15 09:05:25;;;;;;;;;;;;;;;13.98;98.74;100491.34;5031250;28;20396;-65
2022/10/15 09:07:50;;;;;;;;;;;;;;;14.01;98.86;100488.72;5032448;28;19979;-64
2022/10/15 09:10:26;;;;;;;;;;;;;;;14.05;98.77;100482.63;5030716;28;19929;-65
2022/10/15 09:13:00;;;;;;;;;;;;;;;14.10;98.88;100485.25;5028213;28;19952;-65
2022/10/15 09:15:26;;;;;;;;;;;;;;;14.14;98.43;100476.53;5031186;28;19917;-64
2022/10/15 09:17:53;;;;;;;;;;;;;;;14.18;98.48;100482.66;5041114;28;19909;-65
2022/10/15 09:20:22;;;;;;;;;;;;;;;14.20;98.53;100486.19;5031242;28;20119;-65
2022/10/15 09:22:51;;;;;;;;;;;;;;;14.22;98.62;100484.41;5035526;28;19975;-65
2022/10/15 09:25:20;;;;;;;;;;;;;;;14.24;98.48;100480.06;5033985;28;20343;-64
2022/10/15 09:27:47;;;;;;;;;;;;;;;14.25;98.43;100480.06;5037955;28;19914;-64
2022/10/15 09:30:32;;;;;;;;;;;;;;;14.28;98.52;100484.47;5031527;28;19921;-64
2022/10/15 09:32:57;;;;;;;;;;;;;;;14.30;98.19;100482.69;5019355;28;20295;-65
2022/10/15 09:35:28;;;;;;;;;;;;;;;14.31;98.25;100481.84;5037690;28;19921;-64
2022/10/15 09:38:12;;;;;;;;;;;;;;;14.32;98.31;100475.72;5036227;28;19999;-67
2022/10/15 09:40:56;;;;;;;;;;;;;;;14.34;98.59;100473.09;5032273;28;19921;-74
2022/10/15 09:43:27;;;;;;;;;;;;;;;14.36;98.29;100477.47;5027376;28;19923;-73
2022/10/15 09:45:52;;;;;;;;;;;;;;;14.35;98.27;100470.50;5040763;28;19919;-75
2022/10/15 09:48:18;;;;;;;;;;;;;;;14.34;98.53;100468.75;5015204;28;20296;-75
2022/10/15 09:50:47;;;;;;;;;;;;;;;14.32;98.79;100467.84;5032284;28;19945;-75
2022/10/15 09:53:29;;;;;;;;;;;;;;;14.31;99.06;100471.34;5032960;28;19990;-75
2022/10/15 09:55:57;;;;;;;;;;;;;;;14.31;99.02;100470.47;5015213;28;20408;-76
2022/10/15 09:58:28;;;;;;;;;;;;;;;14.31;98.98;100465.22;5028276;28;19917;-75
2022/10/15 10:01:01;;;;;;;;;;;;;;;14.31;99.19;100458.25;5032040;28;19952;-75
2022/10/15 10:03:31;;;;;;;;;;;;;;;14.32;99.70;100456.50;5030472;28;19963;-76
2022/10/15 10:06:03;;;;;;;;;;;;;;;14.32;100.00;100448.63;5034623;28;19947;-76
2022/10/15 10:08:30;;;;;;;;;;;;;;;14.33;100.00;100451.25;5034640;28;20090;-76
2022/10/15 10:11:03;;;;;;;;;;;;;;;14.36;100.00;100455.63;5031524;28;19940;-75
2022/10/15 10:13:33;;;;;;;;;;;;;;;14.36;100.00;100456.50;5031528;28;20297;-76
2022/10/15 10:16:07;;;;;;;;;;;;;;;14.38;100.00;100448.63;5032494;28;19921;-76
2022/10/15 10:18:32;;;;;;;;;;;;;;;14.40;100.00;100439.03;5037162;28;20415;-75
2022/10/15 10:20:59;;;;;;;;;;;;;;;14.42;100.00;100448.66;5028988;28;19922;-76
2022/10/15 10:23:34;;;;;;;;;;;;;;;14.44;100.00;100446.91;5036342;28;19933;-76
2022/10/15 10:26:01;;;;;;;;;;;;;;;14.48;100.00;100450.41;5032312;28;19917;-75
2022/10/15 10:28:30;;;;;;;;;;;;;;;14.52;100.00;100451.28;5031995;28;19917;-75
2022/10/15 10:30:55;;;;;;;;;;;;;;;14.57;100.00;100452.16;5029691;28;19917;-75
2022/10/15 10:33:24;;;;;;;;;;;;;;;14.61;100.00;100451.28;5029827;28;19937;-75
2022/10/15 10:35:50;;;;;;;;;;;;;;;14.67;100.00;100458.31;5014405;28;19920;-75
2022/10/15 10:38:22;;;;;;;;;;;;;;;14.68;100.00;100458.31;5029638;28;20007;-75
2022/10/15 10:40:57;;;;;;;;;;;;;;;14.73;100.00;100463.56;5029409;28;19957;-75
2022/10/15 10:43:25;;;;;;;;;;;;;;;14.76;100.00;100459.19;5033699;28;20095;-75
2022/10/15 10:45:53;;;;;;;;;;;;;;;14.81;100.00;100459.19;5016148;28;19944;-76
2022/10/15 10:48:19;;;;;;;;;;;;;;;14.84;100.00;100456.56;5029905;28;19939;-75
2022/10/15 10:50:45;;;;;;;;;;;;;;;14.88;100.00;100454.84;5029308;28;19935;-75
2022/10/15 10:53:19;;;;;;;;;;;;;;;14.92;100.00;100459.22;5029930;28;19921;-76
2022/10/15 10:55:44;;;;;;;;;;;;;;;14.96;100.00;100453.06;5035263;28;19932;-75
2022/10/15 10:58:14;;;;;;;;;;;;;;;15.02;100.00;100460.06;5028998;28;19917;-76
2022/10/15 11:00:42;;;;;;;;;;;;;;;15.05;100.00;100453.06;5033424;28;19925;-76
2022/10/15 11:03:13;;;;;;;;;;;;;;;15.10;100.00;100455.69;5017040;28;20308;-76
2022/10/15 11:05:39;;;;;;;;;;;;;;;15.14;100.00;100446.94;5015022;28;20319;-76
2022/10/15 11:08:23;;;;;;;;;;;;;;;15.15;100.00;100446.06;5029898;28;20020;-76
2022/10/15 11:10:53;;;;;;;;;;;;;;;15.19;100.00;100439.91;5029749;28;20003;-76
2022/10/15 11:13:36;;;;;;;;;;;;;;;15.22;100.00;100441.66;5015971;28;19921;-75
2022/10/15 11:16:04;;;;;;;;;;;;;;;15.25;100.00;100441.66;5031462;28;19971;-76
2022/10/15 11:18:32;;;;;;;;;;;;;;;15.29;100.00;100441.66;5030635;28;19917;-76
2022/10/15 11:21:11;;;;;;;;;;;;;;;15.35;100.00;100443.41;5012591;28;20307;-75
2022/10/15 11:23:56;;;;;;;;;;;;;;;15.41;100.00;100432.88;5013343;28;19921;-76
2022/10/15 11:26:21;;;;;;;;;;;;;;;15.48;100.00;100441.59;5024651;28;20347;-75
2022/10/15 11:28:58;;;;;;;;;;;;;;;15.50;100.00;100439.84;5010625;28;19917;-76
2022/10/15 11:31:32;;;;;;;;;;;;;;;15.56;100.00;100436.31;5020779;28;19920;-76
2022/10/15 11:34:23;;;;;;;;;;;;;;;15.58;100.00;100426.69;5030092;28;19987;-76
2022/10/15 11:36:49;;;;;;;;;;;;;;;15.61;100.00;100440.69;5020343;28;19925;-76
2022/10/15 11:39:22;;;;;;;;;;;;;;;15.64;100.00;100431.91;5025638;28;19932;-75
2022/10/15 11:42:16;;;;;;;;;;;;;;;15.67;100.00;100431.91;5028859;28;19927;-77
2022/10/15 11:44:52;;;;;;;;;;;;;;;15.70;100.00;100433.63;5017138;28;19921;-76
2022/10/15 11:47:17;;;;;;;;;;;;;;;15.73;100.00;100437.13;5019452;28;19933;-75
2022/10/15 11:49:45;;;;;;;;;;;;;;;15.74;100.00;100438.91;5028726;28;19921;-75
2022/10/15 11:52:31;;;;;;;;;;;;;;;15.73;100.00;100431.88;5008387;28;19939;-76
2022/10/15 11:55:15;;;;;;;;;;;;;;;15.73;100.00;100436.25;4995069;28;20400;-76
2022/10/15 11:57:42;;;;;;;;;;;;;;;15.74;100.00;100433.63;5028736;28;19921;-76
2022/10/15 12:00:13;;;;;;;;;;;;;;;15.76;100.00;100431.00;5021996;28;19921;-75
2022/10/15 12:02:38;;;;;;;;;;;;;;;15.75;100.00;100435.38;5023005;28;19921;-75
2022/10/15 12:05:06;;;;;;;;;;;;;;;15.76;100.00;100431.88;5011432;28;19917;-75
2022/10/15 12:07:39;;;;;;;;;;;;;;;15.80;100.00;100427.50;5028537;28;20214;-75
2022/10/15 12:10:14;;;;;;;;;;;;;;;15.82;100.00;100426.59;5008476;28;20319;-75
2022/10/15 12:12:44;;;;;;;;;;;;;;;15.88;100.00;100435.34;5024314;28;19948;-75
2022/10/15 12:15:12;;;;;;;;;;;;;;;15.91;100.00;100433.56;5026277;28;20019;-75
2022/10/15 12:17:40;;;;;;;;;;;;;;;15.96;100.00;100429.19;5032500;28;19921;-76
2022/10/15 12:20:10;;;;;;;;;;;;;;;16.00;100.00;100430.03;5031230;28;19921;-76
2022/10/15 12:22:40;;;;;;;;;;;;;;;16.04;100.00;100421.25;5029250;28;19921;-76
2022/10/15 12:25:11;;;;;;;;;;;;;;;16.07;100.00;100420.34;5006040;28;19971;-76
2022/10/15 12:27:36;;;;;;;;;;;;;;;16.13;100.00;100415.94;5023073;28;19936;-76
2022/10/15 12:30:01;;;;;;;;;;;;;;;16.19;100.00;100415.00;5014479;28;19925;-75
2022/10/15 12:32:29;;;;;;;;;;;;;;;16.25;100.00;100411.47;5027719;28;19917;-76
2022/10/15 12:34:55;;;;;;;;;;;;;;;16.31;100.00;100416.72;5008692;28;20084;-76